createdAt,value
2018-05-13T00:00:50.019Z,97.10
2018-05-13T00:03:17.571Z,97.10
2018-05-13T00:05:45.103Z,97.20
2018-05-13T00:08:12.665Z,97.30
2018-05-13T00:10:40.195Z,97.30
2018-05-13T00:13:07.743Z,97.30
2018-05-13T00:15:35.284Z,97.40
2018-05-13T00:18:02.838Z,97.40
2018-05-13T00:20:30.380Z,97.50
2018-05-13T00:22:57.942Z,97.60
2018-05-13T00:25:25.499Z,97.50
2018-05-13T00:27:53.043Z,97.60
2018-05-13T00:30:22.082Z,97.80
2018-05-13T00:32:49.644Z,97.80
2018-05-13T00:35:17.200Z,97.80
2018-05-13T00:37:44.720Z,97.90
2018-05-13T00:40:13.035Z,98.00
2018-05-13T00:42:41.338Z,98.10
2018-05-13T00:45:08.914Z,98.10
2018-05-13T00:47:36.436Z,98.10
2018-05-13T00:50:03.999Z,98.10
2018-05-13T00:52:31.542Z,98.20
2018-05-13T00:54:59.093Z,98.30
2018-05-13T00:57:26.623Z,98.50
2018-05-13T00:59:54.702Z,98.40
2018-05-13T01:02:22.219Z,98.50
2018-05-13T01:04:49.793Z,98.90
2018-05-13T01:07:17.336Z,98.60
2018-05-13T01:09:44.903Z,98.70
2018-05-13T01:12:13.189Z,98.80
2018-05-13T01:14:42.328Z,98.80
2018-05-13T01:17:09.887Z,98.80
2018-05-13T01:19:37.431Z,98.90
2018-05-13T01:22:04.968Z,99.00
2018-05-13T01:24:32.548Z,99.10
2018-05-13T01:27:00.853Z,99.10
2018-05-13T01:29:29.360Z,99.10
2018-05-13T01:31:57.660Z,99.30
2018-05-13T01:34:25.235Z,99.30
2018-05-13T01:36:52.739Z,99.50
2018-05-13T01:39:20.296Z,99.60
2018-05-13T01:41:47.824Z,99.50
2018-05-13T01:44:15.399Z,99.50
2018-05-13T01:46:42.947Z,99.60
2018-05-13T01:49:10.508Z,99.60
2018-05-13T01:51:38.038Z,99.70
2018-05-13T01:54:05.591Z,99.70
2018-05-13T01:56:33.110Z,99.60
2018-05-13T01:59:00.651Z,99.70
2018-05-13T02:01:28.218Z,99.70
2018-05-13T02:03:55.741Z,99.90
2018-05-13T02:06:23.291Z,99.80
2018-05-13T02:08:50.823Z,99.80
2018-05-13T02:11:18.380Z,99.90
2018-05-13T02:13:45.918Z,99.90
2018-05-13T02:16:13.463Z,99.90
2018-05-13T02:18:40.994Z,99.90
2018-05-13T02:21:08.677Z,99.90
2018-05-13T02:23:36.199Z,99.90
2018-05-13T02:26:03.759Z,99.90
2018-05-13T02:28:31.290Z,99.90
2018-05-13T02:30:58.887Z,99.90
2018-05-13T02:33:26.406Z,99.90
2018-05-13T02:35:53.965Z,99.90
2018-05-13T02:38:21.495Z,99.90
2018-05-13T02:40:49.051Z,99.90
2018-05-13T02:43:16.669Z,99.90
2018-05-13T02:45:44.314Z,99.90
2018-05-13T02:48:11.967Z,99.90
2018-05-13T02:50:39.520Z,99.90
2018-05-13T02:53:07.061Z,99.90
2018-05-13T02:55:34.602Z,99.90
2018-05-13T02:58:02.140Z,99.90
2018-05-13T03:00:29.807Z,99.90
2018-05-13T03:02:57.349Z,99.90
2018-05-13T03:05:24.895Z,99.90
2018-05-13T03:07:52.418Z,99.90
2018-05-13T03:10:19.971Z,99.90
2018-05-13T03:12:47.611Z,99.90
2018-05-13T03:15:15.192Z,99.90
2018-05-13T03:17:42.819Z,99.90
2018-05-13T03:20:10.382Z,99.90
2018-05-13T03:22:37.991Z,99.90
2018-05-13T03:25:05.511Z,99.90
2018-05-13T03:27:33.059Z,99.90
2018-05-13T03:30:00.588Z,99.90
2018-05-13T03:32:28.130Z,99.90
2018-05-13T03:34:56.419Z,99.90
2018-05-13T03:37:23.972Z,99.90
2018-05-13T03:39:51.507Z,99.90
2018-05-13T03:42:19.091Z,99.90
2018-05-13T03:44:46.715Z,99.90
2018-05-13T03:47:14.275Z,99.90
2018-05-13T03:49:41.807Z,99.90
2018-05-13T03:52:09.372Z,99.90
2018-05-13T03:54:36.911Z,99.90
2018-05-13T03:57:04.506Z,99.90
2018-05-13T03:59:33.695Z,99.90
2018-05-13T04:02:01.368Z,99.90
2018-05-13T04:04:28.885Z,99.90
2018-05-13T04:06:56.463Z,99.90
2018-05-13T04:09:35.811Z,99.90
2018-05-13T04:12:15.379Z,99.90
2018-05-13T04:14:55.555Z,99.90
2018-05-13T04:17:23.115Z,99.90
2018-05-13T04:19:50.727Z,99.90
2018-05-13T04:22:18.283Z,99.90
2018-05-13T04:24:45.815Z,99.90
2018-05-13T04:27:13.372Z,99.90
2018-05-13T04:29:40.895Z,99.90
2018-05-13T04:32:09.404Z,99.60
2018-05-13T04:34:36.946Z,99.60
2018-05-13T04:37:04.483Z,99.40
2018-05-13T04:39:32.006Z,99.20
2018-05-13T04:41:59.887Z,99.10
2018-05-13T04:44:28.221Z,98.90
2018-05-13T04:46:55.766Z,98.80
2018-05-13T04:49:23.340Z,98.50
2018-05-13T04:51:50.905Z,98.30
2018-05-13T04:54:18.435Z,98.00
2018-05-13T04:56:45.977Z,97.80
2018-05-13T04:59:13.508Z,97.40
2018-05-13T05:01:41.137Z,97.30
2018-05-13T05:04:08.664Z,97.00
2018-05-13T05:06:36.223Z,96.70
2018-05-13T05:09:03.763Z,96.50
2018-05-13T05:11:31.356Z,96.20
2018-05-13T05:13:58.939Z,96.00
2018-05-13T05:16:27.227Z,95.40
2018-05-13T05:18:54.789Z,95.40
2018-05-13T05:21:22.339Z,95.10
2018-05-13T05:23:49.883Z,94.90
2018-05-13T05:26:17.402Z,94.50
2018-05-13T05:28:44.954Z,94.40
2018-05-13T05:31:12.518Z,94.10
2018-05-13T05:33:40.072Z,93.90
2018-05-13T05:36:07.616Z,93.80
2018-05-13T05:38:36.390Z,93.10
2018-05-13T05:41:03.921Z,93.10
2018-05-13T05:43:31.568Z,92.90
2018-05-13T05:45:59.101Z,92.70
2018-05-13T05:48:26.701Z,92.30
2018-05-13T05:50:54.187Z,92.10
2018-05-13T05:53:21.740Z,92.10
2018-05-13T05:55:49.291Z,91.70
2018-05-13T05:58:16.835Z,91.60
2018-05-13T06:00:44.375Z,91.50
2018-05-13T06:03:11.973Z,91.00
2018-05-13T06:05:39.483Z,91.10
2018-05-13T06:08:07.077Z,90.60
2018-05-13T06:10:34.618Z,90.60
2018-05-13T06:13:02.167Z,90.20
2018-05-13T06:15:29.691Z,89.20
2018-05-13T06:17:58.015Z,88.50
2018-05-13T06:20:25.583Z,88.50
2018-05-13T06:22:53.118Z,88.50
2018-05-13T06:25:20.747Z,88.20
2018-05-13T06:27:48.999Z,87.40
2018-05-13T06:30:16.559Z,87.40
2018-05-13T06:32:44.088Z,87.40
2018-05-13T06:35:11.646Z,86.20
2018-05-13T06:37:39.279Z,86.00
2018-05-13T06:40:06.843Z,85.30
2018-05-13T06:42:34.589Z,86.20
2018-05-13T06:45:02.203Z,84.00
2018-05-13T06:47:29.774Z,83.50
2018-05-13T06:49:57.310Z,83.10
2018-05-13T06:52:24.928Z,82.70
2018-05-13T06:54:52.424Z,82.20
2018-05-13T06:57:20.441Z,82.00
2018-05-13T06:59:47.928Z,82.00
2018-05-13T07:02:15.526Z,81.50
2018-05-13T07:04:43.078Z,81.70
2018-05-13T07:07:10.598Z,81.40
2018-05-13T07:09:38.908Z,78.60
2018-05-13T07:12:06.450Z,78.50
2018-05-13T07:14:34.020Z,78.40
2018-05-13T07:17:01.630Z,77.40
2018-05-13T07:19:29.184Z,77.30
2018-05-13T07:21:56.711Z,77.50
2018-05-13T07:24:24.278Z,76.80
2018-05-13T07:26:51.809Z,76.90
2018-05-13T07:29:19.371Z,76.20
2018-05-13T07:31:46.903Z,76.20
2018-05-13T07:34:14.760Z,75.90
2018-05-13T07:36:42.310Z,74.90
2018-05-13T07:39:09.959Z,73.60
2018-05-13T07:41:38.912Z,72.20
2018-05-13T07:44:06.447Z,72.00
2018-05-13T07:46:34.463Z,71.10
2018-05-13T07:49:03.026Z,70.40
2018-05-13T07:51:31.348Z,69.90
2018-05-13T07:53:58.887Z,69.70
2018-05-13T07:56:26.438Z,68.90
2018-05-13T07:58:53.976Z,66.90
2018-05-13T08:01:21.533Z,67.60
2018-05-13T08:03:49.064Z,66.80
2018-05-13T08:06:16.705Z,66.30
2018-05-13T08:08:44.158Z,66.10
2018-05-13T08:11:11.788Z,65.70
2018-05-13T08:13:39.314Z,65.70
2018-05-13T08:16:06.853Z,65.70
2018-05-13T08:18:35.135Z,65.30
2018-05-13T08:21:02.679Z,65.30
2018-05-13T08:23:30.206Z,64.30
2018-05-13T08:25:57.745Z,63.40
2018-05-13T08:28:25.298Z,62.00
2018-05-13T08:30:52.844Z,60.50
2018-05-13T08:33:20.424Z,59.70
2018-05-13T08:35:48.027Z,58.80
2018-05-13T08:38:15.551Z,57.60
2018-05-13T08:40:43.883Z,57.10
2018-05-13T08:43:11.522Z,57.00
2018-05-13T08:45:40.554Z,56.40
2018-05-13T08:48:08.106Z,56.30
2018-05-13T08:50:35.650Z,56.00
2018-05-13T08:53:03.171Z,55.80
2018-05-13T08:55:30.991Z,55.00
2018-05-13T08:57:58.522Z,53.90
2018-05-13T09:00:26.163Z,53.10
2018-05-13T09:02:53.703Z,52.80
2018-05-13T09:05:21.257Z,53.10
2018-05-13T09:07:48.780Z,52.40
2018-05-13T09:10:16.382Z,53.00
2018-05-13T09:12:44.712Z,50.10
2018-05-13T09:15:13.649Z,50.10
2018-05-13T09:17:41.315Z,50.10
2018-05-13T09:20:08.844Z,51.00
2018-05-13T09:22:37.159Z,48.80
2018-05-13T09:25:04.678Z,48.80
2018-05-13T09:27:32.227Z,48.50
2018-05-13T09:29:59.753Z,48.50
2018-05-13T09:32:27.297Z,47.40
2018-05-13T09:34:54.814Z,47.30
2018-05-13T09:37:23.132Z,45.80
2018-05-13T09:39:50.676Z,45.80
2018-05-13T09:42:18.219Z,46.10
2018-05-13T09:44:45.736Z,46.30
2018-05-13T09:47:13.451Z,44.60
2018-05-13T09:49:41.843Z,44.50
2018-05-13T09:52:09.378Z,44.40
2018-05-13T09:54:36.902Z,44.70
2018-05-13T09:57:04.466Z,44.60
2018-05-13T09:59:32.752Z,44.00
2018-05-13T10:02:00.315Z,43.90
2018-05-13T10:04:27.840Z,44.00
2018-05-13T10:06:55.391Z,44.10
2018-05-13T10:09:23.708Z,43.80
2018-05-13T10:11:52.058Z,42.80
2018-05-13T10:14:19.578Z,42.20
2018-05-13T10:16:47.117Z,42.80
2018-05-13T10:19:14.634Z,43.20
2018-05-13T10:21:42.215Z,43.10
2018-05-13T10:24:09.740Z,43.30
2018-05-13T10:26:37.295Z,42.40
2018-05-13T10:29:04.825Z,40.50
2018-05-13T10:31:32.384Z,40.20
2018-05-13T10:33:59.922Z,40.40
2018-05-13T10:36:27.541Z,40.10
2018-05-13T10:38:55.039Z,39.80
2018-05-13T10:41:22.599Z,40.20
2018-05-13T10:43:50.943Z,38.80
2018-05-13T10:46:18.463Z,38.70
2018-05-13T10:48:46.027Z,38.70
2018-05-13T10:51:13.756Z,39.10
2018-05-13T10:53:41.308Z,38.30
2018-05-13T10:56:08.841Z,38.30
2018-05-13T10:58:36.382Z,35.90
2018-05-13T11:01:04.244Z,37.20
2018-05-13T11:03:32.605Z,36.50
2018-05-13T11:06:00.139Z,36.50
2018-05-13T11:08:27.804Z,36.40
2018-05-13T11:10:55.322Z,36.90
2018-05-13T11:13:22.867Z,36.90
2018-05-13T11:15:50.403Z,36.70
2018-05-13T11:18:17.951Z,36.30
2018-05-13T11:20:45.509Z,35.60
2018-05-13T11:23:13.047Z,35.60
2018-05-13T11:25:40.583Z,35.60
2018-05-13T11:28:08.143Z,35.40
2018-05-13T11:30:35.671Z,35.10
2018-05-13T11:33:03.240Z,35.50
2018-05-13T11:35:30.768Z,34.70
2018-05-13T11:37:58.315Z,34.30
2018-05-13T11:40:25.856Z,34.50
2018-05-13T11:42:53.449Z,34.00
2018-05-13T11:45:20.961Z,34.20
2018-05-13T11:47:48.525Z,33.70
2018-05-13T11:50:16.063Z,33.60
2018-05-13T11:52:44.530Z,33.80
2018-05-13T11:55:12.068Z,33.80
2018-05-13T11:57:39.629Z,34.30
2018-05-13T12:00:07.157Z,34.10
2018-05-13T12:02:34.928Z,34.00
2018-05-13T12:05:02.515Z,33.80
2018-05-13T12:07:30.060Z,33.90
2018-05-13T12:09:59.599Z,33.60
2018-05-13T12:12:27.339Z,33.60
2018-05-13T12:14:54.941Z,34.00
2018-05-13T12:17:22.698Z,33.90
2018-05-13T12:19:50.247Z,33.40
2018-05-13T12:22:17.841Z,33.30
2018-05-13T12:24:45.402Z,32.50
2018-05-13T12:27:12.928Z,32.90
2018-05-13T12:29:40.511Z,33.40
2018-05-13T12:32:08.831Z,33.10
2018-05-13T12:34:36.402Z,33.10
2018-05-13T12:37:03.971Z,33.50
2018-05-13T12:39:31.551Z,33.50
2018-05-13T12:41:59.076Z,32.90
2018-05-13T12:44:26.626Z,32.70
2018-05-13T12:46:54.166Z,32.10
2018-05-13T12:49:21.708Z,32.10
2018-05-13T12:51:49.237Z,32.30
2018-05-13T12:54:16.992Z,31.60
2018-05-13T12:56:45.228Z,31.80
2018-05-13T12:59:13.530Z,30.60
2018-05-13T13:01:42.010Z,30.40
2018-05-13T13:04:09.914Z,30.00
2018-05-13T13:06:37.744Z,30.60
2018-05-13T13:09:06.107Z,29.80
2018-05-13T13:11:33.741Z,29.70
2018-05-13T13:14:01.290Z,30.10
2018-05-13T13:16:29.219Z,30.40
2018-05-13T13:18:57.323Z,31.10
2018-05-13T13:21:25.652Z,31.60
2018-05-13T13:23:53.251Z,31.60
2018-05-13T13:26:20.790Z,31.40
2018-05-13T13:28:48.478Z,32.00
2018-05-13T13:31:16.920Z,32.60
2018-05-13T13:33:44.611Z,32.50
2018-05-13T13:36:12.230Z,32.50
2018-05-13T13:38:40.804Z,32.10
2018-05-13T13:41:09.300Z,32.10
2018-05-13T13:43:36.846Z,32.00
2018-05-13T13:46:04.666Z,31.90
2018-05-13T13:48:33.680Z,31.80
2018-05-13T13:51:01.328Z,32.20
2018-05-13T13:53:30.396Z,31.90
2018-05-13T13:55:57.953Z,31.90
2018-05-13T13:58:25.489Z,31.70
2018-05-13T14:00:53.058Z,32.10
2018-05-13T14:03:20.645Z,31.70
2018-05-13T14:05:48.352Z,31.60
2018-05-13T14:08:17.087Z,31.50
2018-05-13T14:10:45.875Z,31.40
2018-05-13T14:13:14.184Z,31.40
2018-05-13T14:15:41.787Z,31.30
2018-05-13T14:18:10.099Z,31.20
2018-05-13T14:20:37.965Z,31.10
2018-05-13T14:23:05.516Z,31.10
2018-05-13T14:25:33.087Z,31.60
2018-05-13T14:28:00.691Z,31.40
2018-05-13T14:30:28.427Z,31.40
2018-05-13T14:32:56.016Z,31.10
2018-05-13T14:35:24.496Z,31.00
2018-05-13T14:37:52.217Z,31.10
2018-05-13T14:40:20.550Z,31.40
2018-05-13T14:42:48.115Z,31.20
2018-05-13T14:45:15.765Z,31.00
2018-05-13T14:47:43.452Z,30.90
2018-05-13T14:50:11.053Z,30.40
2018-05-13T14:52:38.680Z,30.30
2018-05-13T14:55:06.250Z,30.50
2018-05-13T14:57:33.815Z,30.60
2018-05-13T15:00:01.360Z,30.60
2018-05-13T15:02:28.991Z,30.70
2018-05-13T15:04:56.557Z,30.30
2018-05-13T15:07:30.536Z,29.80
2018-05-13T15:09:58.170Z,29.90
2018-05-13T15:12:25.817Z,29.50
2018-05-13T15:14:53.734Z,29.20
2018-05-13T15:17:21.301Z,29.30
2018-05-13T15:19:48.828Z,29.10
2018-05-13T15:22:16.414Z,28.70
2018-05-13T15:24:44.021Z,28.70
2018-05-13T15:27:11.717Z,28.50
2018-05-13T15:29:39.264Z,28.60
2018-05-13T15:32:06.932Z,28.50
2018-05-13T15:34:34.488Z,27.90
2018-05-13T15:37:02.823Z,28.00
2018-05-13T15:39:31.851Z,27.00
2018-05-13T15:41:59.394Z,27.00
2018-05-13T15:44:26.946Z,26.90
2018-05-13T15:46:54.496Z,26.70
2018-05-13T15:49:22.019Z,25.60
2018-05-13T15:51:49.707Z,25.40
2018-05-13T15:54:17.443Z,24.40
2018-05-13T15:56:44.999Z,23.80
2018-05-13T15:59:12.605Z,23.00
2018-05-13T16:01:40.147Z,22.80
2018-05-13T16:04:07.661Z,22.80
2018-05-13T16:06:35.212Z,22.40
2018-05-13T16:09:03.534Z,21.90
2018-05-13T16:11:31.084Z,21.80
2018-05-13T16:13:58.611Z,21.30
2018-05-13T16:16:26.255Z,21.40
2018-05-13T16:18:53.842Z,21.20
2018-05-13T16:21:22.467Z,21.00
2018-05-13T16:23:50.083Z,20.80
2018-05-13T16:26:18.400Z,20.30
2018-05-13T16:28:45.943Z,20.20
2018-05-13T16:31:13.456Z,20.70
2018-05-13T16:33:41.083Z,20.70
2018-05-13T16:36:09.098Z,21.10
2018-05-13T16:38:36.731Z,20.90
2018-05-13T16:41:04.259Z,20.10
2018-05-13T16:43:31.795Z,20.00
2018-05-13T16:45:59.314Z,20.00
2018-05-13T16:48:27.710Z,20.00
2018-05-13T16:50:55.251Z,20.00
2018-05-13T16:53:22.837Z,20.00
2018-05-13T16:55:50.513Z,19.90
2018-05-13T16:58:18.858Z,20.00
2018-05-13T17:00:46.412Z,20.00
2018-05-13T17:03:14.139Z,20.40
2018-05-13T17:05:41.667Z,20.10
2018-05-13T17:08:09.213Z,20.70
2018-05-13T17:10:36.745Z,20.80
2018-05-13T17:13:04.308Z,20.90
2018-05-13T17:15:31.831Z,20.60
2018-05-13T17:17:59.391Z,20.90
2018-05-13T17:20:26.906Z,20.90
2018-05-13T17:22:54.447Z,20.60
2018-05-13T17:25:21.968Z,20.90
2018-05-13T17:27:51.199Z,21.40
2018-05-13T17:30:18.725Z,21.40
2018-05-13T17:32:46.272Z,21.40
2018-05-13T17:35:13.788Z,21.20
2018-05-13T17:37:42.198Z,22.00
2018-05-13T17:40:10.440Z,22.30
2018-05-13T17:42:38.119Z,22.20
2018-05-13T17:45:05.635Z,22.20
2018-05-13T17:47:33.188Z,22.40
2018-05-13T17:50:00.755Z,21.90
2018-05-13T17:52:28.262Z,22.20
2018-05-13T17:54:55.810Z,22.40
2018-05-13T17:57:23.390Z,23.10
2018-05-13T17:59:50.921Z,23.20
2018-05-13T18:02:18.472Z,23.30
2018-05-13T18:04:46.061Z,23.40
2018-05-13T18:07:14.360Z,24.30
2018-05-13T18:09:42.015Z,24.30
2018-05-13T18:12:09.536Z,24.50
2018-05-13T18:14:38.480Z,26.00
2018-05-13T18:17:06.787Z,27.00
2018-05-13T18:19:34.334Z,26.90
2018-05-13T18:22:01.916Z,28.20
2018-05-13T18:24:29.474Z,28.90
2018-05-13T18:26:57.804Z,30.40
2018-05-13T18:29:25.347Z,30.40
2018-05-13T18:31:53.402Z,31.20
2018-05-13T18:34:20.989Z,31.70
2018-05-13T18:36:49.280Z,33.10
2018-05-13T18:39:16.924Z,33.10
2018-05-13T18:41:44.399Z,33.30
2018-05-13T18:44:11.937Z,33.90
2018-05-13T18:46:39.463Z,34.20
2018-05-13T18:49:07.138Z,34.60
2018-05-13T18:51:34.665Z,35.00
2018-05-13T18:54:02.223Z,35.50
2018-05-13T18:56:29.751Z,36.00
2018-05-13T18:58:57.460Z,36.10
2018-05-13T19:01:24.927Z,36.40
2018-05-13T19:03:52.526Z,36.80
2018-05-13T19:06:20.056Z,37.20
2018-05-13T19:08:47.731Z,37.40
2018-05-13T19:11:16.111Z,38.00
2018-05-13T19:13:44.423Z,38.30
2018-05-13T19:16:11.937Z,38.30
2018-05-13T19:18:39.486Z,38.50
2018-05-13T19:21:07.055Z,38.70
2018-05-13T19:23:34.651Z,39.30
2018-05-13T19:26:02.967Z,40.50
2018-05-13T19:28:30.512Z,40.50
2018-05-13T19:30:58.140Z,40.80
2018-05-13T19:33:26.387Z,42.50
2018-05-13T19:35:54.137Z,42.40
2018-05-13T19:38:21.758Z,42.50
2018-05-13T19:40:49.320Z,43.10
2018-05-13T19:43:16.992Z,43.40
2018-05-13T19:45:44.483Z,44.30
2018-05-13T19:48:12.771Z,45.20
2018-05-13T19:50:40.819Z,45.20
2018-05-13T19:53:08.344Z,45.50
2018-05-13T19:55:36.671Z,46.50
2018-05-13T19:58:04.265Z,46.40
2018-05-13T20:00:32.605Z,47.10
2018-05-13T20:03:00.192Z,47.10
2018-05-13T20:05:27.688Z,47.50
2018-05-13T20:07:56.091Z,47.70
2018-05-13T20:10:23.629Z,47.80
2018-05-13T20:12:51.151Z,48.60
2018-05-13T20:15:18.689Z,48.30
2018-05-13T20:17:46.984Z,48.80
2018-05-13T20:20:15.192Z,48.90
2018-05-13T20:22:54.528Z,49.00
2018-05-13T20:25:22.074Z,49.10
2018-05-13T20:27:49.624Z,49.40
2018-05-13T20:30:17.986Z,49.70
2018-05-13T20:32:46.295Z,49.80
2018-05-13T20:35:13.857Z,49.70
2018-05-13T20:37:41.382Z,49.80
2018-05-13T20:40:08.939Z,49.90
2018-05-13T20:42:36.623Z,50.00
2018-05-13T20:45:04.188Z,50.30
2018-05-13T20:47:32.490Z,50.60
2018-05-13T20:50:00.051Z,50.50
2018-05-13T20:52:27.582Z,50.60
2018-05-13T20:54:56.810Z,50.60
2018-05-13T20:57:24.425Z,51.00
2018-05-13T20:59:51.951Z,50.90
2018-05-13T21:02:19.626Z,51.00
2018-05-13T21:04:47.546Z,51.20
2018-05-13T21:07:15.107Z,51.30
2018-05-13T21:09:42.666Z,51.40
2018-05-13T21:12:10.295Z,51.50
2018-05-13T21:14:37.810Z,51.70
2018-05-13T21:17:05.425Z,52.00
2018-05-13T21:19:32.951Z,51.90
2018-05-13T21:22:00.500Z,52.50
2018-05-13T21:24:28.031Z,52.10
2018-05-13T21:26:55.602Z,52.20
2018-05-13T21:29:23.903Z,52.50
2018-05-13T21:31:51.478Z,52.50
2018-05-13T21:34:19.175Z,52.60
2018-05-13T21:36:47.506Z,52.90
2018-05-13T21:39:16.854Z,52.90
2018-05-13T21:41:44.656Z,53.00
2018-05-13T21:44:12.270Z,52.90
2018-05-13T21:46:39.817Z,53.20
2018-05-13T21:49:07.748Z,53.40
2018-05-13T21:51:35.304Z,53.30
2018-05-13T21:54:02.861Z,52.80
2018-05-13T21:56:30.403Z,52.90
2018-05-13T21:58:57.944Z,52.90
2018-05-13T22:01:25.490Z,52.90
2018-05-13T22:03:53.009Z,52.70
2018-05-13T22:06:20.568Z,52.70
2018-05-13T22:08:48.092Z,52.80
2018-05-13T22:11:15.651Z,52.90
2018-05-13T22:13:43.211Z,53.00
2018-05-13T22:16:10.742Z,53.20
2018-05-13T22:18:38.354Z,53.20
2018-05-13T22:21:06.766Z,53.80
2018-05-13T22:23:34.288Z,53.80
2018-05-13T22:26:01.900Z,53.90
2018-05-13T22:28:29.508Z,54.30
2018-05-13T22:30:57.364Z,54.20
2018-05-13T22:33:24.918Z,54.30
2018-05-13T22:35:52.481Z,54.40
2018-05-13T22:38:20.102Z,54.30
2018-05-13T22:40:47.619Z,54.50
2018-05-13T22:43:15.163Z,54.80
2018-05-13T22:45:42.683Z,55.10
2018-05-13T22:48:10.577Z,55.30
2018-05-13T22:50:38.125Z,55.60
2018-05-13T22:53:07.260Z,55.80
2018-05-13T22:55:34.840Z,55.80
2018-05-13T22:58:02.395Z,56.10
2018-05-13T23:00:29.951Z,56.40
2018-05-13T23:02:58.705Z,56.50
2018-05-13T23:05:26.331Z,56.90
2018-05-13T23:07:54.766Z,57.10
2018-05-13T23:10:23.182Z,57.60
2018-05-13T23:12:50.724Z,57.60
2018-05-13T23:15:18.293Z,58.00
2018-05-13T23:17:45.917Z,58.40
2018-05-13T23:20:13.431Z,58.60
2018-05-13T23:22:41.879Z,59.20
2018-05-13T23:25:11.047Z,59.50
2018-05-13T23:27:38.586Z,59.50
2018-05-13T23:30:06.289Z,60.50
2018-05-13T23:32:34.224Z,60.30
2018-05-13T23:35:01.787Z,60.60
2018-05-13T23:37:29.363Z,60.80
2018-05-13T23:39:56.880Z,61.20
2018-05-13T23:42:24.419Z,61.60
2018-05-13T23:44:51.980Z,62.10
2018-05-13T23:47:19.536Z,62.30
2018-05-13T23:49:47.167Z,62.90
2018-05-13T23:52:14.736Z,63.10
2018-05-13T23:54:42.254Z,63.40
2018-05-13T23:57:09.904Z,63.80
2018-05-13T23:59:38.303Z,64.10
